Woodstock, NY

10:54 PM EST on December 27, 2014 (GMT -0500)
Shady | Change Station
CLOSE
Current Station
Personal Weather Station
Location: Bearsville, NY
Elevation: 1299 ft
Nearby Weather Stations

Elev 1299 ft 42.07 °N, 74.17 °W | Updated 5 minutes ago

Mostly Cloudy
Mostly Cloudy
40.1 °F
Feels Like 40 °F
N
0.0
Wind Variable Wind from SSW
Gusts 1.0 mph

Today
High -- | Low -- °F
--% Chance of Precip.
Yesterday
High -- | Low -- °F
Precip. -- in
7:24 AM 4:31 PM
Waxing Crescent, 43% visible
Pressure 30.09 in
Visibility 10.0 miles
Clouds Mostly Cloudy 7000 ft
Windchill 40 °F
Dew Point 37 °F
Humidity 87%
Rainfall 0.00 in
Snow Depth Not available.
UV 0 out of 12
Pollen .10 out of 12
Air Quality Not available.
Flu Activity Not available.
METAR KPOU 280253Z AUTO 00000KT 10SM BKN070 03/01 A3009 RMK AO2 SLP187 T00280006 56016 TSNO

More Conditions Fewer Conditions

Pressure 30.09 in
Visibility 10.0 miles
Clouds Mostly Cloudy 7000 ft
Windchill 40 °F
Dew Point 37 °F
Humidity 87%
Rainfall 0.00 in
Snow Depth Not available.
UV 0 out of 12
Pollen .10 out of 12
Air Quality Not available.
Flu Activity Not available.
METAR KPOU 280253Z AUTO 00000KT 10SM BKN070 03/01 A3009 RMK AO2 SLP187 T00280006 56016 TSNO

More Conditions Fewer Conditions

10-Day Weather Forecast

Almanac

Astronomy

Dec. 27, 2014 Rise Set
Actual Time
Civil Twilight
Nautical Twilight
Astronomical Twilight
Moon
Length of Visible Light
Length of Day
Tomorrow will be .
, % of the Moon is Illuminated

Today's Extremes

State Highs State Lows

Community

WunderPhotos

Upload Photos

1,781,185 photos uploaded!

WunderBlogs® & News

Nearby

Air Quality

  Air Quality AQ Index Pollutant
Not available.

Snow Depth

Station Depth Elevation

Earthquake Activity

City Distance Mag. Time & Date
Minimum magnitude displayed is 2.5.

Coastal Water Temperatures

Place Temperature

Nearby Weather Stations